createdAt,value
2023-04-14T00:02:00.414Z,4.10
2023-04-14T00:04:36.944Z,4.88
2023-04-14T00:07:13.418Z,4.20
2023-04-14T00:09:49.574Z,3.75
2023-04-14T00:12:30.616Z,3.90
2023-04-14T00:15:17.102Z,3.20
2023-04-14T00:18:01.752Z,3.25
2023-04-14T00:20:37.945Z,4.07
2023-04-14T00:23:14.126Z,3.58
2023-04-14T00:25:52.381Z,3.63
2023-04-14T00:28:30.890Z,3.15
2023-04-14T00:31:06.815Z,3.13
2023-04-14T00:33:44.625Z,3.33
2023-04-14T00:36:19.832Z,3.80
2023-04-14T00:38:55.224Z,3.40
2023-04-14T00:41:35.794Z,3.40
2023-04-14T00:44:13.853Z,3.25
2023-04-14T00:46:49.743Z,3.30
2023-04-14T00:49:25.719Z,3.20
2023-04-14T00:52:01.739Z,3.08
2023-04-14T00:54:41.398Z,3.08
2023-04-14T00:57:17.970Z,3.03
2023-04-14T00:59:57.238Z,2.90
2023-04-14T01:02:36.212Z,2.90
2023-04-14T01:05:12.513Z,3.10
2023-04-14T01:07:49.352Z,2.55
2023-04-14T01:10:32.737Z,3.10
2023-04-14T01:13:19.622Z,2.75
2023-04-14T01:16:02.812Z,2.97
2023-04-14T01:18:47.071Z,3.33
2023-04-14T01:21:35.589Z,3.08
2023-04-14T01:24:35.047Z,2.70
2023-04-14T01:27:27.756Z,2.70
2023-04-14T01:30:19.567Z,3.30
2023-04-14T01:33:01.914Z,2.85
2023-04-14T01:35:42.099Z,3.00
2023-04-14T01:38:26.705Z,3.15
2023-04-14T01:41:06.544Z,3.10
2023-04-14T01:43:49.736Z,3.40
2023-04-14T01:46:25.698Z,3.40
2023-04-14T01:49:04.403Z,3.40
2023-04-14T01:51:41.539Z,3.63
2023-04-14T01:54:20.124Z,3.28
2023-04-14T01:56:57.253Z,3.40
2023-04-14T01:59:35.324Z,3.40
2023-04-14T02:02:13.211Z,3.72
2023-04-14T02:04:53.936Z,3.50
2023-04-14T02:07:31.292Z,3.50
2023-04-14T02:10:09.725Z,3.50
2023-04-14T02:12:46.426Z,3.38
2023-04-14T02:15:38.228Z,3.60
2023-04-14T02:18:18.926Z,3.58
2023-04-14T02:21:02.407Z,3.70
2023-04-14T02:23:40.306Z,3.45
2023-04-14T02:26:19.159Z,3.33
2023-04-14T02:29:03.626Z,3.50
2023-04-14T02:31:44.847Z,4.25
2023-04-14T02:34:28.313Z,3.78
2023-04-14T02:37:12.998Z,4.15
2023-04-14T02:39:53.582Z,3.88
2023-04-14T02:42:33.363Z,4.30
2023-04-14T02:45:19.519Z,4.60
2023-04-14T02:47:59.822Z,4.68
2023-04-14T02:50:37.476Z,4.97
2023-04-14T02:53:28.104Z,4.60
2023-04-14T02:56:19.764Z,4.97
2023-04-14T02:59:02.523Z,4.88
2023-04-14T03:01:41.218Z,5.25
2023-04-14T03:04:18.445Z,5.10
2023-04-14T03:06:55.325Z,5.45
2023-04-14T03:09:34.004Z,5.50
2023-04-14T03:12:12.512Z,5.13
2023-04-14T03:14:49.671Z,5.43
2023-04-14T03:17:25.759Z,5.15
2023-04-14T03:20:03.931Z,5.22
2023-04-14T03:22:42.081Z,5.18
2023-04-14T03:25:23.363Z,5.35
2023-04-14T03:28:03.855Z,5.85
2023-04-14T03:30:42.486Z,5.45
2023-04-14T03:33:23.413Z,5.07
2023-04-14T03:36:01.315Z,5.38
2023-04-14T03:38:38.992Z,5.78
2023-04-14T03:41:27.007Z,5.70
2023-04-14T03:44:07.490Z,5.82
2023-04-14T03:46:44.008Z,5.63
2023-04-14T03:49:22.060Z,6.43
2023-04-14T03:52:05.628Z,6.65
2023-04-14T03:54:44.018Z,6.40
2023-04-14T03:57:24.945Z,5.82
2023-04-14T04:00:04.185Z,5.85
2023-04-14T04:02:48.965Z,6.35
2023-04-14T04:05:25.737Z,5.70
2023-04-14T04:08:07.077Z,6.20
2023-04-14T04:10:47.338Z,6.28
2023-04-14T04:13:29.276Z,6.22
2023-04-14T04:16:12.387Z,5.68
2023-04-14T04:18:50.495Z,5.82
2023-04-14T04:21:33.542Z,5.68
2023-04-14T04:24:10.572Z,5.63
2023-04-14T04:26:46.632Z,5.53
2023-04-14T04:29:25.801Z,5.75
2023-04-14T04:32:01.217Z,6.53
2023-04-14T04:34:38.042Z,6.20
2023-04-14T04:37:13.527Z,6.43
2023-04-14T04:39:48.767Z,6.63
2023-04-14T04:42:25.174Z,6.90
2023-04-14T04:45:04.172Z,5.97
2023-04-14T04:47:39.425Z,6.93
2023-04-14T04:50:14.777Z,6.95
2023-04-14T04:52:49.816Z,7.20
2023-04-14T04:55:24.932Z,7.03
2023-04-14T04:58:00.122Z,6.93
2023-04-14T05:00:40.919Z,7.75
2023-04-14T05:03:16.840Z,7.57
2023-04-14T05:05:52.070Z,7.00
2023-04-14T05:08:28.086Z,7.20
2023-04-14T05:11:03.442Z,6.78
2023-04-14T05:13:39.377Z,7.32
2023-04-14T05:16:18.954Z,7.65
2023-04-14T05:18:54.852Z,6.93
2023-04-14T05:21:30.202Z,7.68
2023-04-14T05:24:05.657Z,7.47
2023-04-14T05:29:19.107Z,7.22
2023-04-14T05:31:56.905Z,8.20
2023-04-14T05:34:32.277Z,7.65
2023-04-14T05:37:07.603Z,8.95
2023-04-14T05:39:42.952Z,7.68
2023-04-14T05:42:18.334Z,8.02
2023-04-14T05:44:53.940Z,7.53
2023-04-14T05:47:32.303Z,7.40
2023-04-14T05:50:09.603Z,8.68
2023-04-14T05:52:45.869Z,8.45
2023-04-14T05:55:21.810Z,8.30
2023-04-14T05:57:57.667Z,8.95
2023-04-14T06:00:33.091Z,9.65
2023-04-14T06:03:11.954Z,8.70
2023-04-14T06:05:48.544Z,9.32
2023-04-14T06:08:25.675Z,7.68
2023-04-14T06:11:01.013Z,7.68
2023-04-14T06:13:37.050Z,7.32
2023-04-14T06:16:13.155Z,8.13
2023-04-14T06:18:51.199Z,8.50
2023-04-14T06:21:26.917Z,9.57
2023-04-14T06:24:02.622Z,8.45
2023-04-14T06:26:38.054Z,9.07
2023-04-14T06:29:13.504Z,8.75
2023-04-14T06:31:48.754Z,8.73
2023-04-14T06:34:26.760Z,9.25
2023-04-14T06:37:01.967Z,8.07
2023-04-14T06:39:37.415Z,8.63
2023-04-14T06:42:13.478Z,9.30
2023-04-14T06:44:49.793Z,9.13
2023-04-14T06:47:25.790Z,8.40
2023-04-14T06:50:04.140Z,8.30
2023-04-14T06:52:39.309Z,8.50
2023-04-14T06:55:15.146Z,8.32
2023-04-14T06:57:50.932Z,8.13
2023-04-14T07:00:26.908Z,7.85
2023-04-14T07:03:02.859Z,8.07
2023-04-14T07:05:41.261Z,8.20
2023-04-14T07:08:17.350Z,7.55
2023-04-14T07:10:53.894Z,6.85
2023-04-14T07:13:29.494Z,7.72
2023-04-14T07:16:07.192Z,6.53
2023-04-14T07:18:43.036Z,6.95
2023-04-14T07:21:22.451Z,7.00
2023-04-14T07:23:57.872Z,6.68
2023-04-14T07:26:33.505Z,6.03
2023-04-14T07:29:09.690Z,6.20
2023-04-14T07:31:45.509Z,6.20
2023-04-14T07:34:21.815Z,5.38
2023-04-14T07:36:59.753Z,5.80
2023-04-14T07:39:35.812Z,5.95
2023-04-14T07:42:11.502Z,5.65
2023-04-14T07:44:46.936Z,5.47
2023-04-14T07:47:22.511Z,5.35
2023-04-14T07:49:58.596Z,5.85
2023-04-14T07:52:37.252Z,5.03
2023-04-14T07:55:13.797Z,5.35
2023-04-14T07:57:49.637Z,5.40
2023-04-14T08:00:25.539Z,5.43
2023-04-14T08:03:01.190Z,5.65
2023-04-14T08:05:37.098Z,5.57
2023-04-14T08:08:15.842Z,4.82
2023-04-14T08:10:51.403Z,5.13
2023-04-14T08:13:26.913Z,5.07
2023-04-14T08:16:02.271Z,5.05
2023-04-14T08:18:37.659Z,5.00
2023-04-14T08:21:13.986Z,6.03
2023-04-14T08:23:52.756Z,6.18
2023-04-14T08:26:29.212Z,6.35
2023-04-14T08:29:04.692Z,6.97
2023-04-14T08:31:40.292Z,7.50
2023-04-14T08:34:21.200Z,7.93
2023-04-14T08:37:04.238Z,8.20
2023-04-14T08:39:42.232Z,8.13
2023-04-14T08:42:19.290Z,8.45
2023-04-14T08:44:56.258Z,8.93
2023-04-14T08:47:33.709Z,9.25
2023-04-14T08:50:18.782Z,9.35
2023-04-14T08:52:58.559Z,8.75
2023-04-14T08:55:38.910Z,7.78
2023-04-14T08:58:14.710Z,7.40
2023-04-14T09:00:51.301Z,7.30
2023-04-14T09:03:27.468Z,7.43
2023-04-14T09:06:03.197Z,7.40
2023-04-14T09:08:39.376Z,7.05
2023-04-14T09:11:19.588Z,6.45
2023-04-14T09:14:11.861Z,5.68
2023-04-14T09:16:49.016Z,6.70
2023-04-14T09:19:25.214Z,6.30
2023-04-14T09:22:00.423Z,5.60
2023-04-14T09:24:36.317Z,4.75
2023-04-14T09:27:14.243Z,4.95
2023-04-14T09:29:51.781Z,5.25
2023-04-14T09:32:27.396Z,5.20
2023-04-14T09:35:03.662Z,4.72
2023-04-14T09:37:46.616Z,5.10
2023-04-14T09:40:32.391Z,4.70
2023-04-14T09:43:13.169Z,4.70
2023-04-14T09:45:48.707Z,4.57
2023-04-14T09:48:25.169Z,4.07
2023-04-14T09:51:02.938Z,4.40
2023-04-14T09:53:39.385Z,4.38
2023-04-14T09:56:16.086Z,5.30
2023-04-14T09:58:53.978Z,4.47
2023-04-14T10:01:34.115Z,5.47
2023-04-14T10:04:26.665Z,4.32
2023-04-14T10:07:02.504Z,4.95
2023-04-14T10:09:41.029Z,5.07
2023-04-14T10:12:18.879Z,4.75
2023-04-14T10:14:56.870Z,4.43
2023-04-14T10:17:34.207Z,4.70
2023-04-14T10:20:11.093Z,4.10
2023-04-14T10:22:46.726Z,4.07
2023-04-14T10:25:22.328Z,4.10
2023-04-14T10:27:59.466Z,4.40
2023-04-14T10:30:39.383Z,4.20
2023-04-14T10:33:14.949Z,4.53
2023-04-14T10:35:54.732Z,4.30
2023-04-14T10:38:44.251Z,4.50
2023-04-14T10:41:19.894Z,3.60
2023-04-14T10:43:55.290Z,3.55
2023-04-14T10:46:45.932Z,3.95
2023-04-14T10:49:22.136Z,3.40
2023-04-14T10:51:58.844Z,4.10
2023-04-14T10:54:52.825Z,3.90
2023-04-14T10:57:29.775Z,4.10
2023-04-14T11:00:25.393Z,3.78
2023-04-14T11:03:13.472Z,2.92
2023-04-14T11:05:52.050Z,2.95
2023-04-14T11:08:29.482Z,3.10
2023-04-14T11:11:06.432Z,3.03
2023-04-14T11:13:42.621Z,3.25
2023-04-14T11:16:40.266Z,2.53
2023-04-14T11:19:26.156Z,2.45
2023-04-14T11:22:02.078Z,2.53
2023-04-14T11:24:40.232Z,2.78
2023-04-14T11:27:17.050Z,3.30
2023-04-14T11:30:01.264Z,2.30
2023-04-14T11:32:51.966Z,3.03
2023-04-14T11:35:47.134Z,2.80
2023-04-14T11:38:31.447Z,2.90
2023-04-14T11:41:08.609Z,3.30
2023-04-14T11:43:47.414Z,3.10
2023-04-14T11:46:26.195Z,3.17
2023-04-14T11:49:01.962Z,3.10
2023-04-14T11:51:41.394Z,3.10
2023-04-14T11:54:17.210Z,3.40
2023-04-14T11:56:53.015Z,3.05
2023-04-14T11:59:28.446Z,3.10
2023-04-14T12:02:04.837Z,3.58
2023-04-14T12:04:41.658Z,3.45
2023-04-14T12:07:32.414Z,3.63
2023-04-14T12:10:10.553Z,3.80
2023-04-14T12:12:47.200Z,3.88
2023-04-14T12:15:23.662Z,3.80
2023-04-14T12:18:02.246Z,4.40
2023-04-14T12:20:45.323Z,4.15
2023-04-14T12:23:23.707Z,4.00
2023-04-14T12:26:02.004Z,4.45
2023-04-14T12:28:39.377Z,4.13
2023-04-14T12:34:38.091Z,4.13
2023-04-14T12:37:15.249Z,4.55
2023-04-14T12:39:58.578Z,4.93
